Time;durP1;ratioP1;P1;durP2;ratioP2;P2;SDS_P1;SDS_P2;PMS_P1;PMS_P2;Temp;Humidity;BMP_temperature;BMP_pressure;BME280_temperature;BME280_humidity;BME280_pressure;Samples;Min_cycle;Max_cycle;Signal;HPM_P1;HPM_P2
2021/09/26 00:02:13;;;;;;;;;;;;;;;17.31;100.00;98945.53;5060714;28;20294;-63
2021/09/26 00:04:39;;;;;;;;;;;;;;;17.24;100.00;98948.56;5061749;28;19917;-63
2021/09/26 00:07:04;;;;;;;;;;;;;;;17.32;100.00;98943.75;5081463;28;19932;-63
2021/09/26 00:09:30;;;;;;;;;;;;;;;17.29;100.00;98946.56;5084717;28;19936;-62
2021/09/26 00:11:55;;;;;;;;;;;;;;;17.33;100.00;98935.00;5089791;28;19916;-62
2021/09/26 00:14:21;;;;;;;;;;;;;;;16.97;100.00;98938.03;5083432;28;19931;-63
2021/09/26 00:16:46;;;;;;;;;;;;;;;17.10;100.00;98937.22;5066122;28;19969;-62
2021/09/26 00:19:12;;;;;;;;;;;;;;;17.26;100.00;98933.72;5082519;28;19930;-63
2021/09/26 00:21:37;;;;;;;;;;;;;;;17.20;100.00;98928.88;5083579;28;19973;-63
2021/09/26 00:24:03;;;;;;;;;;;;;;;17.25;100.00;98929.44;5080023;28;19916;-62
2021/09/26 00:26:28;;;;;;;;;;;;;;;17.34;100.00;98931.47;5085181;28;20283;-63
2021/09/26 00:28:54;;;;;;;;;;;;;;;17.29;100.00;98933.53;5083429;28;20405;-63
2021/09/26 00:31:19;;;;;;;;;;;;;;;17.22;100.00;98937.41;5081127;28;20259;-62
2021/09/26 00:33:45;;;;;;;;;;;;;;;17.18;100.00;98938.56;5085956;28;19920;-63
2021/09/26 00:36:10;;;;;;;;;;;;;;;17.39;100.00;98934.63;5082975;28;19927;-62
2021/09/26 00:38:36;;;;;;;;;;;;;;;17.29;100.00;98925.72;5080365;28;19924;-62
2021/09/26 00:41:01;;;;;;;;;;;;;;;17.21;100.00;98927.94;5073231;28;19924;-63
2021/09/26 00:43:28;;;;;;;;;;;;;;;17.18;100.00;98918.56;5083712;28;19941;-63
2021/09/26 00:45:54;;;;;;;;;;;;;;;17.17;100.00;98924.69;5068254;28;19935;-63
2021/09/26 00:48:19;;;;;;;;;;;;;;;17.04;100.00;98918.56;5081421;28;19912;-63
2021/09/26 00:50:45;;;;;;;;;;;;;;;17.10;100.00;98918.19;5075901;28;20423;-62
2021/09/26 00:53:10;;;;;;;;;;;;;;;17.01;100.00;98913.53;5070280;28;20034;-62
2021/09/26 00:55:36;;;;;;;;;;;;;;;17.04;100.00;98919.41;5077272;28;19920;-62
2021/09/26 00:58:01;;;;;;;;;;;;;;;16.82;100.00;98908.59;5079507;28;19920;-63
2021/09/26 01:00:27;;;;;;;;;;;;;;;16.88;100.00;98910.84;5084131;28;19918;-63
2021/09/26 01:02:54;;;;;;;;;;;;;;;16.88;100.00;98910.84;5082931;28;19923;-63
2021/09/26 01:05:20;;;;;;;;;;;;;;;16.95;100.00;98909.53;5087642;28;19930;-63
2021/09/26 01:07:45;;;;;;;;;;;;;;;17.02;100.00;98900.44;5085613;28;20244;-62
2021/09/26 01:10:31;;;;;;;;;;;;;;;17.03;100.00;98907.28;5083289;28;20007;-62
2021/09/26 01:13:16;;;;;;;;;;;;;;;16.90;100.00;98912.41;5105299;28;19915;-61
2021/09/26 01:16:00;;;;;;;;;;;;;;;17.09;100.00;98906.94;5085312;28;19916;-63
2021/09/26 01:18:34;;;;;;;;;;;;;;;16.99;100.00;98910.19;5085219;28;20293;-63
2021/09/26 01:21:07;;;;;;;;;;;;;;;17.03;100.00;98901.25;5081430;28;19923;-63
2021/09/26 01:23:51;;;;;;;;;;;;;;;17.17;100.00;98903.03;5077433;28;19919;-62
2021/09/26 01:26:37;;;;;;;;;;;;;;;17.03;100.00;98896.91;5081577;28;20535;-62
2021/09/26 01:29:03;;;;;;;;;;;;;;;17.28;100.00;98891.03;5064068;28;20634;-62
2021/09/26 01:31:32;;;;;;;;;;;;;;;17.20;100.00;98889.84;5076190;28;20016;-63
2021/09/26 01:34:05;;;;;;;;;;;;;;;17.31;100.00;98893.47;5084078;28;19911;-63
2021/09/26 01:36:40;;;;;;;;;;;;;;;17.19;100.00;98893.38;5083793;28;19911;-62
2021/09/26 01:39:05;;;;;;;;;;;;;;;17.48;100.00;98887.22;5081464;28;19916;-62
2021/09/26 01:41:41;;;;;;;;;;;;;;;17.43;100.00;98886.66;5101404;28;20281;-62
2021/09/26 01:44:12;;;;;;;;;;;;;;;17.59;100.00;98885.72;5083882;28;19990;-63
2021/09/26 01:46:40;;;;;;;;;;;;;;;17.30;100.00;98889.19;5086805;28;20277;-62
2021/09/26 01:49:06;;;;;;;;;;;;;;;17.58;100.00;98887.47;5106022;28;19912;-62
2021/09/26 01:51:38;;;;;;;;;;;;;;;17.40;100.00;98886.84;5080682;28;19960;-62
2021/09/26 01:54:04;;;;;;;;;;;;;;;17.45;100.00;98890.00;5086161;28;19934;-63
2021/09/26 01:56:29;;;;;;;;;;;;;;;17.41;100.00;98891.13;5084139;28;19916;-63
2021/09/26 01:58:55;;;;;;;;;;;;;;;17.51;100.00;98889.59;5096184;28;19977;-62
2021/09/26 02:01:20;;;;;;;;;;;;;;;17.50;100.00;98887.94;5082921;28;20343;-63
2021/09/26 02:03:46;;;;;;;;;;;;;;;17.40;100.00;98886.84;5086029;28;19913;-63
2021/09/26 02:06:11;;;;;;;;;;;;;;;17.41;100.00;98883.31;5101922;28;20451;-63
2021/09/26 02:08:38;;;;;;;;;;;;;;;17.35;100.00;98875.88;5086603;28;19912;-62
2021/09/26 02:11:04;;;;;;;;;;;;;;;17.69;100.00;98878.97;5084862;28;19916;-63
2021/09/26 02:13:30;;;;;;;;;;;;;;;17.61;100.00;98883.81;5086275;28;19916;-62
2021/09/26 02:15:55;;;;;;;;;;;;;;;17.60;100.00;98877.78;5083554;28;19918;-63
2021/09/26 02:18:20;;;;;;;;;;;;;;;17.62;100.00;98878.53;5070740;28;19989;-63
2021/09/26 02:20:46;;;;;;;;;;;;;;;17.48;100.00;98875.97;5085732;28;20353;-62
2021/09/26 02:23:11;;;;;;;;;;;;;;;17.77;100.00;98871.53;5084479;28;19923;-63
2021/09/26 02:25:39;;;;;;;;;;;;;;;17.51;100.00;98871.38;5084939;28;20431;-63
2021/09/26 02:28:04;;;;;;;;;;;;;;;17.66;100.00;98879.19;5082433;28;19956;-62
2021/09/26 02:30:30;;;;;;;;;;;;;;;17.47;100.00;98875.13;5071560;28;19919;-62
2021/09/26 02:32:55;;;;;;;;;;;;;;;17.75;100.00;98873.41;5085831;28;19919;-62
2021/09/26 02:35:20;;;;;;;;;;;;;;;17.78;100.00;98867.97;5084649;28;19912;-63
2021/09/26 02:37:46;;;;;;;;;;;;;;;17.64;100.00;98873.22;5103259;28;20444;-63
2021/09/26 02:40:12;;;;;;;;;;;;;;;17.95;100.00;98870.38;5089304;28;19915;-63
2021/09/26 02:42:41;;;;;;;;;;;;;;;17.71;100.00;98871.91;5082536;28;20292;-63
2021/09/26 02:45:06;;;;;;;;;;;;;;;17.71;100.00;98872.75;5085101;28;19923;-63
2021/09/26 02:47:40;;;;;;;;;;;;;;;17.71;100.00;98871.91;5086077;28;19920;-63
2021/09/26 02:50:05;;;;;;;;;;;;;;;17.70;100.00;98871.09;5088770;28;19916;-63
2021/09/26 02:52:31;;;;;;;;;;;;;;;17.73;100.00;98873.47;5088200;28;19989;-63
2021/09/26 02:54:56;;;;;;;;;;;;;;;17.88;100.00;98879.53;5090389;28;19931;-63
2021/09/26 02:57:22;;;;;;;;;;;;;;;17.92;100.00;98869.72;5090392;28;20560;-62
2021/09/26 02:59:47;;;;;;;;;;;;;;;18.13;100.00;98868.34;5086587;28;19915;-62
2021/09/26 03:02:13;;;;;;;;;;;;;;;18.13;100.00;98863.16;5069726;28;19918;-62
2021/09/26 03:04:45;;;;;;;;;;;;;;;17.86;100.00;98860.56;5086736;28;19916;-62
2021/09/26 03:07:11;;;;;;;;;;;;;;;18.05;100.00;98860.19;5068077;28;19928;-63
2021/09/26 03:09:37;;;;;;;;;;;;;;;18.08;100.00;98859.16;5065024;28;19974;-62
2021/09/26 03:12:09;;;;;;;;;;;;;;;17.78;100.00;98865.38;5065822;28;20320;-63
2021/09/26 03:14:35;;;;;;;;;;;;;;;17.90;100.00;98862.03;5068650;28;20011;-62
2021/09/26 03:17:00;;;;;;;;;;;;;;;17.89;100.00;98859.50;5067451;28;20003;-63
2021/09/26 03:19:25;;;;;;;;;;;;;;;18.11;100.00;98858.94;5063533;28;19917;-63
2021/09/26 03:21:51;;;;;;;;;;;;;;;18.01;100.00;98857.88;5062534;28;19916;-63
2021/09/26 03:24:16;;;;;;;;;;;;;;;18.01;100.00;98852.69;5063143;28;19966;-63
2021/09/26 03:26:42;;;;;;;;;;;;;;;18.10;100.00;98860.72;5066999;28;19973;-63
2021/09/26 03:29:07;;;;;;;;;;;;;;;18.04;100.00;98858.53;5063295;28;19912;-63
2021/09/26 03:31:32;;;;;;;;;;;;;;;18.04;100.00;98858.53;5063680;28;20804;-63
2021/09/26 03:33:59;;;;;;;;;;;;;;;18.05;100.00;98862.78;5064697;28;20393;-63
2021/09/26 03:36:25;;;;;;;;;;;;;;;18.25;100.00;98861.50;5061401;28;19920;-63
2021/09/26 03:38:50;;;;;;;;;;;;;;;18.11;100.00;98851.13;5056845;28;20357;-63
2021/09/26 03:41:16;;;;;;;;;;;;;;;18.38;100.00;98844.13;5065739;28;20461;-62
2021/09/26 03:43:41;;;;;;;;;;;;;;;18.24;100.00;98849.38;5063873;28;20437;-63
2021/09/26 03:46:06;;;;;;;;;;;;;;;18.35;100.00;98852.13;5064494;28;19917;-63
2021/09/26 03:48:33;;;;;;;;;;;;;;;18.43;100.00;98855.97;5061251;28;19923;-62
2021/09/26 03:50:58;;;;;;;;;;;;;;;18.51;100.00;98851.09;5061654;28;19977;-63
2021/09/26 03:53:24;;;;;;;;;;;;;;;18.53;100.00;98854.44;5066833;28;20028;-63
2021/09/26 03:55:49;;;;;;;;;;;;;;;18.53;100.00;98854.44;5058882;28;20282;-63
2021/09/26 03:58:15;;;;;;;;;;;;;;;18.69;100.00;98849.03;5063125;28;19921;-63
2021/09/26 04:00:40;;;;;;;;;;;;;;;18.44;100.00;98850.69;5060401;28;19916;-63
2021/09/26 04:03:05;;;;;;;;;;;;;;;18.69;100.00;98849.88;5063229;28;19919;-63
2021/09/26 04:05:31;;;;;;;;;;;;;;;18.50;100.00;98844.25;5069163;28;20736;-62
2021/09/26 04:07:56;;;;;;;;;;;;;;;18.60;100.00;98835.66;5085644;28;20007;-63
2021/09/26 04:10:24;;;;;;;;;;;;;;;18.76;100.00;98835.47;5080053;28;20396;-62
2021/09/26 04:12:49;;;;;;;;;;;;;;;18.58;100.00;98837.53;5085775;28;19920;-62
2021/09/26 04:15:15;;;;;;;;;;;;;;;18.81;100.00;98833.38;5082113;28;19912;-63
2021/09/26 04:17:41;;;;;;;;;;;;;;;18.60;100.00;98829.63;5083509;28;20448;-63
2021/09/26 04:20:07;;;;;;;;;;;;;;;18.73;100.00;98835.69;5079871;28;19916;-62
2021/09/26 04:22:33;;;;;;;;;;;;;;;18.80;100.00;98826.53;5080089;28;20393;-63
2021/09/26 04:24:58;;;;;;;;;;;;;;;18.63;100.00;98824.19;5081184;28;19920;-62
2021/09/26 04:27:23;;;;;;;;;;;;;;;18.97;100.00;98827.94;5082806;28;20019;-63
2021/09/26 04:29:49;;;;;;;;;;;;;;;18.62;100.00;98825.13;5104670;28;19923;-63
2021/09/26 04:32:15;;;;;;;;;;;;;;;18.84;100.00;98831.50;5084817;28;19919;-63
2021/09/26 04:34:40;;;;;;;;;;;;;;;18.82;100.00;98839.47;5080860;28;19920;-63
2021/09/26 04:37:05;;;;;;;;;;;;;;;18.60;100.00;98840.06;5082407;28;19926;-62
2021/09/26 04:39:32;;;;;;;;;;;;;;;18.88;100.00;98838.19;5080291;28;20422;-63
2021/09/26 04:41:57;;;;;;;;;;;;;;;18.68;100.00;98836.91;5083340;28;19912;-63
2021/09/26 04:44:23;;;;;;;;;;;;;;;18.68;100.00;98829.09;5084121;28;20293;-63
2021/09/26 04:46:48;;;;;;;;;;;;;;;18.77;100.00;98831.09;5082734;28;19981;-63
2021/09/26 04:49:14;;;;;;;;;;;;;;;18.74;100.00;98832.13;5081948;28;19931;-63
2021/09/26 04:51:39;;;;;;;;;;;;;;;18.53;100.00;98833.59;5081453;28;20373;-62
2021/09/26 04:54:05;;;;;;;;;;;;;;;18.68;100.00;98836.91;5080902;28;19916;-66
2021/09/26 04:56:30;;;;;;;;;;;;;;;18.54;100.00;98830.88;5085242;28;19920;-63
2021/09/26 04:58:56;;;;;;;;;;;;;;;18.83;100.00;98829.84;5080533;28;20011;-63
2021/09/26 05:01:21;;;;;;;;;;;;;;;18.73;100.00;98835.69;5080773;28;20030;-63
2021/09/26 05:03:46;;;;;;;;;;;;;;;18.70;100.00;98841.13;5083421;28;20015;-63
2021/09/26 05:06:14;;;;;;;;;;;;;;;18.87;100.00;98839.16;5068950;28;19993;-63
2021/09/26 05:08:40;;;;;;;;;;;;;;;18.93;100.00;98836.09;5067741;28;20026;-63
2021/09/26 05:11:05;;;;;;;;;;;;;;;18.88;100.00;98839.03;5060332;28;20003;-63
2021/09/26 05:13:31;;;;;;;;;;;;;;;18.86;100.00;98842.69;5065162;28;20339;-61
2021/09/26 05:15:57;;;;;;;;;;;;;;;18.66;100.00;98834.44;5066830;28;19942;-63
2021/09/26 05:18:22;;;;;;;;;;;;;;;18.56;100.00;98839.41;5066683;28;20328;-63
2021/09/26 05:20:52;;;;;;;;;;;;;;;18.68;100.00;98842.13;5050749;28;19919;-63
2021/09/26 05:23:17;;;;;;;;;;;;;;;18.56;100.00;98838.59;5064713;28;19959;-62
2021/09/26 05:25:42;;;;;;;;;;;;;;;18.80;100.00;98831.75;5066443;28;19959;-63
2021/09/26 05:28:08;;;;;;;;;;;;;;;18.81;100.00;98838.63;5067312;28;19916;-63
2021/09/26 05:30:34;;;;;;;;;;;;;;;18.84;100.00;98842.81;5065930;28;19966;-63
2021/09/26 05:33:00;;;;;;;;;;;;;;;18.92;100.00;98843.09;5066067;28;19955;-63
2021/09/26 05:35:26;;;;;;;;;;;;;;;18.71;100.00;98848.00;5065646;28;19956;-63
2021/09/26 05:37:52;;;;;;;;;;;;;;;18.63;100.00;98845.06;5066156;28;19921;-63
2021/09/26 05:40:17;;;;;;;;;;;;;;;18.79;100.00;98845.75;5063879;28;19916;-63
2021/09/26 05:42:43;;;;;;;;;;;;;;;18.76;100.00;98848.50;5066527;28;20297;-63
2021/09/26 05:45:09;;;;;;;;;;;;;;;18.89;100.00;98852.94;5066142;28;19999;-62
2021/09/26 05:47:34;;;;;;;;;;;;;;;19.02;100.00;98853.72;5062873;28;20396;-62
2021/09/26 05:49:59;;;;;;;;;;;;;;;18.72;100.00;98854.84;5066682;28;19916;-63
2021/09/26 05:52:25;;;;;;;;;;;;;;;19.05;100.00;98852.72;5050092;28;19948;-63
2021/09/26 05:54:50;;;;;;;;;;;;;;;18.91;100.00;98858.88;5067240;28;19920;-62
2021/09/26 05:57:16;;;;;;;;;;;;;;;18.83;100.00;98855.94;5065912;28;20468;-63
2021/09/26 05:59:41;;;;;;;;;;;;;;;18.98;100.00;98854.91;5064894;28;20005;-63
2021/09/26 06:02:08;;;;;;;;;;;;;;;19.06;100.00;98852.59;5063320;28;19919;-63
2021/09/26 06:04:34;;;;;;;;;;;;;;;19.15;100.00;98841.50;5063949;28;19916;-63
2021/09/26 06:07:00;;;;;;;;;;;;;;;19.15;100.00;98841.50;5056287;28;20047;-62
2021/09/26 06:09:25;;;;;;;;;;;;;;;19.00;100.00;98850.41;5074319;28;20021;-62
2021/09/26 06:11:51;;;;;;;;;;;;;;;19.17;100.00;98852.69;5057804;28;19956;-63
2021/09/26 06:14:16;;;;;;;;;;;;;;;18.94;100.00;98858.66;5045982;28;19938;-63
2021/09/26 06:16:42;;;;;;;;;;;;;;;18.89;100.00;98861.59;5058268;28;19916;-62
2021/09/26 06:19:07;;;;;;;;;;;;;;;18.85;100.00;98867.13;5058896;28;19923;-63
2021/09/26 06:21:32;;;;;;;;;;;;;;;19.17;100.00;98859.69;5058823;28;20398;-62
2021/09/26 06:23:58;;;;;;;;;;;;;;;19.11;100.00;98865.31;5061811;28;20323;-62
2021/09/26 06:26:25;;;;;;;;;;;;;;;19.31;100.00;98866.53;5066143;28;19917;-63
2021/09/26 06:28:51;;;;;;;;;;;;;;;19.31;100.00;98859.53;5065236;28;19978;-62
2021/09/26 06:31:16;;;;;;;;;;;;;;;19.10;100.00;98867.09;5067113;28;20478;-63
2021/09/26 06:33:43;;;;;;;;;;;;;;;19.06;100.00;98868.25;5065906;28;19922;-63
2021/09/26 06:36:09;;;;;;;;;;;;;;;18.99;100.00;98867.81;5059362;28;19920;-63
2021/09/26 06:38:35;;;;;;;;;;;;;;;18.94;100.00;98869.09;5076197;28;20289;-63
2021/09/26 06:41:00;;;;;;;;;;;;;;;19.15;100.00;98872.81;5066841;28;19971;-63
2021/09/26 06:43:26;;;;;;;;;;;;;;;19.37;100.00;98873.97;5064463;28;20369;-63
2021/09/26 06:45:51;;;;;;;;;;;;;;;19.42;100.00;98874.47;5066569;28;19916;-63
2021/09/26 06:48:17;;;;;;;;;;;;;;;19.42;100.00;98874.47;5063780;28;19916;-63
2021/09/26 06:50:42;;;;;;;;;;;;;;;19.61;100.00;98880.06;5063672;28;20477;-63
2021/09/26 06:53:08;;;;;;;;;;;;;;;19.77;100.00;98878.97;5063822;28;20962;-63
2021/09/26 06:55:33;;;;;;;;;;;;;;;19.90;100.00;98895.44;5066601;28;19916;-63
2021/09/26 06:57:58;;;;;;;;;;;;;;;19.94;100.00;98886.44;5064744;28;19920;-63
2021/09/26 07:00:24;;;;;;;;;;;;;;;19.90;100.00;98892.84;5062583;28;19939;-63
2021/09/26 07:02:51;;;;;;;;;;;;;;;20.29;100.00;98890.88;5061399;28;20301;-63
2021/09/26 07:05:17;;;;;;;;;;;;;;;20.14;100.00;98892.00;5066172;28;20389;-63
2021/09/26 07:07:44;;;;;;;;;;;;;;;20.13;100.00;98895.56;5079436;28;19916;-63
2021/09/26 07:10:10;;;;;;;;;;;;;;;20.20;100.00;98902.00;5072603;28;19920;-63
2021/09/26 07:12:35;;;;;;;;;;;;;;;20.06;100.00;98906.47;5070263;28;19969;-63
2021/09/26 07:15:01;;;;;;;;;;;;;;;20.14;100.00;98897.22;5077044;28;19943;-63
2021/09/26 07:17:27;;;;;;;;;;;;;;;20.18;100.00;98898.66;5081255;28;19978;-63
2021/09/26 07:19:52;;;;;;;;;;;;;;;20.09;100.00;98904.56;5076654;28;19927;-63
2021/09/26 07:22:23;;;;;;;;;;;;;;;20.22;100.00;98900.94;5080782;28;19912;-63
2021/09/26 07:24:48;;;;;;;;;;;;;;;20.34;100.00;98898.38;5082511;28;19925;-63
2021/09/26 07:27:15;;;;;;;;;;;;;;;20.49;100.00;98894.63;5071162;28;19916;-63
2021/09/26 07:29:42;;;;;;;;;;;;;;;20.56;100.00;98902.84;5080628;28;19916;-61
2021/09/26 07:32:07;;;;;;;;;;;;;;;20.46;100.00;98907.94;5083913;28;19943;-61
2021/09/26 07:34:33;;;;;;;;;;;;;;;20.98;100.00;98911.03;5080111;28;19955;-63
2021/09/26 07:36:58;;;;;;;;;;;;;;;21.07;100.00;98911.19;5079847;28;19941;-63
2021/09/26 07:39:23;;;;;;;;;;;;;;;21.08;100.00;98917.25;5074095;28;21001;-63
2021/09/26 07:41:49;;;;;;;;;;;;;;;21.21;100.00;98918.00;5076682;28;19920;-63
2021/09/26 07:44:14;;;;;;;;;;;;;;;21.66;100.00;98917.97;5078097;28;20297;-63
2021/09/26 07:46:43;;;;;;;;;;;;;;;21.81;100.00;98910.69;5078931;28;19922;-63
2021/09/26 07:49:08;;;;;;;;;;;;;;;21.82;100.00;98909.72;5075675;28;20433;-64
2021/09/26 07:51:34;;;;;;;;;;;;;;;22.05;100.00;98905.25;5077596;28;19947;-63
2021/09/26 07:53:59;;;;;;;;;;;;;;;22.04;100.00;98908.84;5080351;28;19916;-63
2021/09/26 07:56:25;;;;;;;;;;;;;;;22.02;100.00;98910.75;5076654;28;19916;-64
2021/09/26 07:58:50;;;;;;;;;;;;;;;22.25;100.00;98915.94;5081197;28;19963;-63
2021/09/26 08:01:16;;;;;;;;;;;;;;;22.02;100.00;98913.38;5076952;28;19916;-63
2021/09/26 08:03:41;;;;;;;;;;;;;;;22.40;100.00;98919.94;5078494;28;19916;-63
2021/09/26 08:06:06;;;;;;;;;;;;;;;22.94;100.00;98918.06;5079220;28;19928;-63
2021/09/26 08:08:35;;;;;;;;;;;;;;;23.17;100.00;98921.41;5077048;28;20331;-63
2021/09/26 08:11:02;;;;;;;;;;;;;;;23.10;100.00;98922.91;5081734;28;19916;-64
2021/09/26 08:13:27;;;;;;;;;;;;;;;23.21;100.00;98921.97;5078939;28;19923;-63
2021/09/26 08:15:53;;;;;;;;;;;;;;;22.86;100.00;98918.75;5075916;28;19916;-64
2021/09/26 08:18:18;;;;;;;;;;;;;;;23.07;100.00;98917.91;5076996;28;19960;-63
2021/09/26 08:20:44;;;;;;;;;;;;;;;23.75;100.00;98916.41;5079838;28;19918;-63
2021/09/26 08:23:09;;;;;;;;;;;;;;;23.39;100.00;98926.47;5075336;28;20007;-63
2021/09/26 08:25:35;;;;;;;;;;;;;;;23.26;100.00;98923.25;5079753;28;19978;-63
2021/09/26 08:28:00;;;;;;;;;;;;;;;23.84;100.00;98924.44;5079213;28;20009;-63
2021/09/26 08:30:25;;;;;;;;;;;;;;;24.29;100.00;98929.19;5085914;28;19916;-63
2021/09/26 08:32:51;;;;;;;;;;;;;;;23.70;100.00;98921.19;5084469;28;19916;-63
2021/09/26 08:35:17;;;;;;;;;;;;;;;23.85;100.00;98920.84;5085270;28;19916;-63
2021/09/26 08:37:42;;;;;;;;;;;;;;;24.25;100.00;98925.19;5078568;28;19966;-63
2021/09/26 08:40:08;;;;;;;;;;;;;;;24.32;100.00;98935.00;5078177;28;19923;-63
2021/09/26 08:42:34;;;;;;;;;;;;;;;24.44;100.00;98930.44;5079887;28;19919;-63
2021/09/26 08:44:59;;;;;;;;;;;;;;;24.05;100.00;98927.78;5078997;28;20377;-63
2021/09/26 08:47:24;;;;;;;;;;;;;;;24.85;100.00;98923.22;5077531;28;19999;-63
2021/09/26 08:49:50;;;;;;;;;;;;;;;24.44;100.00;98935.69;5074413;28;19959;-63
2021/09/26 08:52:15;;;;;;;;;;;;;;;25.01;100.00;98933.16;5063616;28;20293;-63
2021/09/26 08:54:40;;;;;;;;;;;;;;;24.93;100.00;98936.50;5080627;28;19943;-63
2021/09/26 08:57:06;;;;;;;;;;;;;;;24.67;100.00;98935.44;5077633;28;19923;-63
2021/09/26 08:59:31;;;;;;;;;;;;;;;24.50;100.00;98937.81;5077853;28;20009;-63
2021/09/26 09:01:57;;;;;;;;;;;;;;;24.86;100.00;98939.84;5079536;28;19920;-63
2021/09/26 09:04:35;;;;;;;;;;;;;;;25.54;100.00;98939.66;5079979;28;19912;-63
2021/09/26 09:07:02;;;;;;;;;;;;;;;25.97;100.00;98943.47;5083228;28;19924;-63
2021/09/26 09:09:27;;;;;;;;;;;;;;;25.86;100.00;98950.59;5059221;28;19943;-62
2021/09/26 09:11:59;;;;;;;;;;;;;;;25.85;100.00;98948.94;5049093;28;19920;-63
2021/09/26 09:14:25;;;;;;;;;;;;;;;25.87;100.00;98944.38;5048377;28;19923;-63
2021/09/26 09:16:56;;;;;;;;;;;;;;;25.80;100.00;98937.16;5054171;28;19913;-63
2021/09/26 09:19:22;;;;;;;;;;;;;;;25.95;100.00;98937.50;5063054;28;19928;-63
2021/09/26 09:22:02;;;;;;;;;;;;;;;25.93;100.00;98934.19;5080070;28;19950;-63
2021/09/26 09:24:27;;;;;;;;;;;;;;;26.17;100.00;98942.34;5082365;28;19916;-63
2021/09/26 09:26:53;;;;;;;;;;;;;;;26.44;100.00;98932.72;5065131;28;20003;-63
2021/09/26 09:29:20;;;;;;;;;;;;;;;26.62;100.00;98930.09;5059794;28;20029;-63
2021/09/26 09:31:56;;;;;;;;;;;;;;;26.33;100.00;98940.88;5048049;28;19919;-63
2021/09/26 09:34:34;;;;;;;;;;;;;;;26.52;100.00;98945.97;5081545;28;19917;-63
2021/09/26 09:37:09;;;;;;;;;;;;;;;26.57;100.00;98950.81;5056192;28;19916;-63
2021/09/26 09:39:35;;;;;;;;;;;;;;;26.78;100.00;98961.09;5063299;28;20292;-63
2021/09/26 09:42:01;;;;;;;;;;;;;;;27.06;100.00;98962.56;5063812;28;19913;-63
2021/09/26 09:44:37;;;;;;;;;;;;;;;26.96;100.00;98961.88;5048254;28;20007;-63
2021/09/26 09:47:02;;;;;;;;;;;;;;;26.58;100.00;98955.13;5057506;28;19924;-63
2021/09/26 09:49:27;;;;;;;;;;;;;;;26.81;100.00;98951.00;5061140;28;20577;-63
2021/09/26 09:51:54;;;;;;;;;;;;;;;27.36;100.00;98949.06;5061279;28;20285;-63
2021/09/26 09:54:33;;;;;;;;;;;;;;;27.21;100.00;98952.31;5058535;28;19912;-63
2021/09/26 09:57:02;;;;;;;;;;;;;;;27.87;100.00;98953.44;5063178;28;20003;-63
2021/09/26 09:59:34;;;;;;;;;;;;;;;27.68;100.00;98956.31;5037743;28;20015;-63
2021/09/26 10:02:00;;;;;;;;;;;;;;;27.91;100.00;98948.63;5061505;28;19923;-63
2021/09/26 10:04:36;;;;;;;;;;;;;;;28.57;100.00;98949.59;5063957;28;19920;-63
2021/09/26 10:07:03;;;;;;;;;;;;;;;28.72;100.00;98953.22;5058777;28;19924;-63
2021/09/26 10:09:28;;;;;;;;;;;;;;;28.20;100.00;98952.69;5045953;28;20380;-63
2021/09/26 10:11:54;;;;;;;;;;;;;;;28.52;100.00;98946.59;5054775;28;19920;-63
2021/09/26 10:14:20;;;;;;;;;;;;;;;28.94;100.00;98934.97;5054064;28;19964;-63
2021/09/26 10:16:46;;;;;;;;;;;;;;;28.19;98.40;98932.47;5054407;28;19916;-63
2021/09/26 10:19:11;;;;;;;;;;;;;;;28.85;100.00;98925.38;5058483;28;20429;-63
2021/09/26 10:21:38;;;;;;;;;;;;;;;28.88;100.00;98930.34;5058844;28;19945;-63
2021/09/26 10:24:04;;;;;;;;;;;;;;;27.08;100.00;98942.13;5055702;28;19943;-63
2021/09/26 10:26:29;;;;;;;;;;;;;;;26.11;100.00;98950.03;5051122;28;19916;-64
2021/09/26 10:28:55;;;;;;;;;;;;;;;28.31;100.00;98945.25;5057204;28;19912;-63
2021/09/26 10:31:21;;;;;;;;;;;;;;;29.19;96.66;98941.06;5057837;28;20003;-63
2021/09/26 10:33:47;;;;;;;;;;;;;;;28.86;100.00;98943.78;5055632;28;20016;-63
2021/09/26 10:36:12;;;;;;;;;;;;;;;28.66;100.00;98948.59;5056985;28;19920;-63
2021/09/26 10:38:38;;;;;;;;;;;;;;;29.15;97.82;98940.59;5045917;28;19934;-63
2021/09/26 10:41:07;;;;;;;;;;;;;;;27.51;100.00;98948.31;5056466;28;21586;-63
2021/09/26 10:43:32;;;;;;;;;;;;;;;29.29;100.00;98951.50;5057713;28;20011;-65
2021/09/26 10:46:14;;;;;;;;;;;;;;;29.82;100.00;98960.59;5061332;28;20007;-65
2021/09/26 10:48:58;;;;;;;;;;;;;;;29.63;100.00;98966.28;5057235;28;19916;-64
2021/09/26 10:51:42;;;;;;;;;;;;;;;29.99;100.00;98961.31;5062243;28;19916;-63
2021/09/26 10:54:23;;;;;;;;;;;;;;;29.09;100.00;98959.84;5056318;28;19923;-63
2021/09/26 10:56:49;;;;;;;;;;;;;;;29.30;99.36;98961.09;5059597;28;20027;-63
2021/09/26 10:59:15;;;;;;;;;;;;;;;29.91;92.80;98964.88;5059423;28;19927;-63
2021/09/26 11:01:40;;;;;;;;;;;;;;;29.94;94.81;98967.16;5048711;28;19920;-63
2021/09/26 11:04:10;;;;;;;;;;;;;;;30.52;96.82;98966.81;5056505;28;19924;-63
2021/09/26 11:06:35;;;;;;;;;;;;;;;29.91;98.64;98959.56;5053326;28;19947;-63
2021/09/26 11:09:01;;;;;;;;;;;;;;;30.06;91.67;98957.00;5054681;28;19916;-63
2021/09/26 11:11:31;;;;;;;;;;;;;;;30.85;91.02;98959.41;5059607;28;19916;-63
2021/09/26 11:13:56;;;;;;;;;;;;;;;30.44;92.51;98955.25;5059923;28;19916;-63
2021/09/26 11:16:22;;;;;;;;;;;;;;;30.27;84.65;98964.34;5058941;28;19954;-63
2021/09/26 11:18:55;;;;;;;;;;;;;;;30.85;91.00;98962.91;5064178;28;20354;-63
2021/09/26 11:21:47;;;;;;;;;;;;;;;30.56;94.08;98963.66;5060166;28;19917;-63
2021/09/26 11:24:12;;;;;;;;;;;;;;;30.58;90.00;98955.47;5075193;28;19921;-63
2021/09/26 11:26:56;;;;;;;;;;;;;;;29.68;90.00;98966.66;5060946;28;19916;-63
2021/09/26 11:29:22;;;;;;;;;;;;;;;29.94;91.82;98969.81;5054048;28;19917;-63
2021/09/26 11:31:48;;;;;;;;;;;;;;;29.19;83.50;98959.63;5062807;28;19920;-63
2021/09/26 11:34:13;;;;;;;;;;;;;;;29.70;92.45;98956.69;5062726;28;19919;-63
2021/09/26 11:36:38;;;;;;;;;;;;;;;30.41;92.28;98955.59;5056350;28;19920;-63
2021/09/26 11:39:23;;;;;;;;;;;;;;;31.33;81.76;98961.75;5053958;28;19920;-63
2021/09/26 11:41:48;;;;;;;;;;;;;;;31.46;91.20;98957.47;5080984;28;19916;-63
2021/09/26 11:44:16;;;;;;;;;;;;;;;29.69;79.88;98960.34;5055246;28;20011;-63
2021/09/26 11:46:45;;;;;;;;;;;;;;;31.13;86.02;98954.31;5058018;28;19920;-64
2021/09/26 11:49:10;;;;;;;;;;;;;;;31.34;88.68;98958.06;5056856;28;19923;-63
2021/09/26 11:51:35;;;;;;;;;;;;;;;29.65;83.69;98957.19;5055913;28;19920;-64
2021/09/26 11:54:01;;;;;;;;;;;;;;;30.67;80.21;98949.06;5059385;28;19956;-63
2021/09/26 11:56:31;;;;;;;;;;;;;;;28.66;82.47;98948.59;5062467;28;19925;-63
2021/09/26 11:58:59;;;;;;;;;;;;;;;30.15;96.48;98949.78;5057834;28;19924;-63
2021/09/26 12:01:31;;;;;;;;;;;;;;;30.03;86.54;98954.66;5058995;28;19912;-63
2021/09/26 12:04:06;;;;;;;;;;;;;;;30.88;90.62;98945.75;5061577;28;20431;-63
2021/09/26 12:06:31;;;;;;;;;;;;;;;30.71;89.87;98942.41;5053546;28;19932;-63
2021/09/26 12:08:56;;;;;;;;;;;;;;;30.64;82.91;98949.44;5061097;28;20325;-63
2021/09/26 12:11:22;;;;;;;;;;;;;;;31.99;81.89;98949.31;5059272;28;19923;-64
2021/09/26 12:13:47;;;;;;;;;;;;;;;32.15;79.65;98937.59;5057820;28;19912;-63
2021/09/26 12:16:13;;;;;;;;;;;;;;;32.46;71.57;98934.59;5059363;28;19912;-63
2021/09/26 12:18:38;;;;;;;;;;;;;;;32.38;71.23;98933.91;5059653;28;20411;-63
2021/09/26 12:21:05;;;;;;;;;;;;;;;31.26;76.35;98933.22;5058148;28;20058;-63
2021/09/26 12:23:50;;;;;;;;;;;;;;;30.61;76.93;98931.22;5058968;28;19974;-63
2021/09/26 12:26:20;;;;;;;;;;;;;;;31.42;86.64;98936.72;5073858;28;19924;-63
2021/09/26 12:28:46;;;;;;;;;;;;;;;31.92;84.76;98943.06;5057876;28;19912;-63
2021/09/26 12:31:11;;;;;;;;;;;;;;;32.17;71.08;98924.91;5040750;28;19916;-63
2021/09/26 12:33:42;;;;;;;;;;;;;;;31.52;75.07;98934.63;5042243;28;19926;-63
2021/09/26 12:36:10;;;;;;;;;;;;;;;29.99;68.73;98935.63;5060505;28;19923;-63
2021/09/26 12:38:41;;;;;;;;;;;;;;;31.01;73.04;98929.19;5058678;28;19916;-63